Time;durP1;ratioP1;P1;durP2;ratioP2;P2;SDS_P1;SDS_P2;PMS_P1;PMS_P2;Temp;Humidity;BMP_temperature;BMP_pressure;BME280_temperature;BME280_humidity;BME280_pressure;Samples;Min_cycle;Max_cycle;Signal;HPM_P1;HPM_P2
2021/05/14 00:00:15;;;;;;;11.18;4.57;;;11.60;99.90;;;;;;6025028;23;20006;-79
2021/05/14 00:03:03;;;;;;;6.90;4.03;;;11.50;99.90;;;;;;6105030;23;20014;-96
2021/05/14 00:05:30;;;;;;;7.63;4.68;;;11.30;99.90;;;;;;6103912;23;20017;-95
2021/05/14 00:40:22;;;;;;;10.13;5.85;;;11.20;99.90;;;;;;6130848;23;20274;-96
2021/05/14 00:42:49;;;;;;;10.13;4.90;;;11.10;99.90;;;;;;6094217;23;20013;-95
2021/05/14 00:45:16;;;;;;;8.85;5.63;;;11.10;99.90;;;;;;6115276;23;20260;-93
2021/05/14 01:27:11;;;;;;;11.85;6.22;;;11.00;99.90;;;;;;6130217;23;19956;-95
2021/05/14 01:29:39;;;;;;;10.52;6.03;;;10.80;99.90;;;;;;6114269;23;20045;-95
2021/05/14 01:32:07;;;;;;;11.45;6.45;;;10.80;99.90;;;;;;6113681;23;20017;-95
2021/05/14 01:34:34;;;;;;;9.02;5.88;;;10.90;99.90;;;;;;6123125;23;20032;-95
2021/05/14 01:37:02;;;;;;;9.45;5.93;;;11.00;99.90;;;;;;6099807;23;20021;-93
2021/05/14 01:39:31;;;;;;;10.90;6.50;;;11.10;99.90;;;;;;6081256;23;20068;-92
2021/05/14 01:41:59;;;;;;;12.20;6.05;;;11.10;99.90;;;;;;6077014;23;20006;-92
2021/05/14 02:05:00;;;;;;;12.48;6.20;;;11.00;99.90;;;;;;6063605;23;20010;-93
2021/05/14 02:19:13;;;;;;;10.25;6.13;;;11.20;99.90;;;;;;6003140;23;19925;-78
2021/05/14 02:21:42;;;;;;;12.00;6.70;;;11.00;99.90;;;;;;6157468;23;19998;-94
2021/05/14 02:24:10;;;;;;;9.45;6.20;;;11.00;99.90;;;;;;6156348;23;20009;-93
2021/05/14 02:26:37;;;;;;;10.43;6.20;;;10.90;99.90;;;;;;6156826;23;19998;-95
2021/05/14 02:29:04;;;;;;;10.73;6.30;;;10.90;99.90;;;;;;6155789;23;20009;-95
2021/05/14 02:31:32;;;;;;;11.90;5.85;;;10.80;99.90;;;;;;6108000;23;20006;-95
2021/05/14 02:34:00;;;;;;;12.35;6.32;;;10.80;99.90;;;;;;6132158;23;20002;-96
2021/05/14 02:36:27;;;;;;;12.63;6.78;;;10.80;99.90;;;;;;6131286;23;20005;-96
2021/05/14 02:38:56;;;;;;;10.80;6.32;;;10.80;99.90;;;;;;6131539;23;20018;-96
2021/05/14 02:41:25;;;;;;;12.13;7.10;;;10.80;99.90;;;;;;6122488;23;20013;-96
2021/05/14 02:43:52;;;;;;;12.15;7.43;;;10.80;99.90;;;;;;6122901;23;20010;-96
2021/05/14 02:46:19;;;;;;;9.85;6.82;;;10.90;99.90;;;;;;6096471;23;20013;-95
2021/05/14 02:48:47;;;;;;;10.80;6.68;;;11.00;99.90;;;;;;6123531;23;20062;-94
2021/05/14 04:22:31;;;;;;;11.52;7.28;;;11.30;99.90;;;;;;6109148;23;20054;-94
2021/05/14 04:24:58;;;;;;;14.65;7.47;;;11.20;99.90;;;;;;6091259;23;20014;-93
2021/05/14 04:27:25;;;;;;;14.80;7.90;;;11.30;99.90;;;;;;6071324;23;20014;-93
2021/05/14 04:29:53;;;;;;;13.93;7.55;;;11.30;99.90;;;;;;6098001;23;20020;-95
2021/05/14 04:32:20;;;;;;;10.93;6.97;;;11.40;99.90;;;;;;6097447;23;20021;-94
2021/05/14 04:34:48;;;;;;;11.43;6.82;;;11.50;99.90;;;;;;6092190;23;20021;-94
2021/05/14 04:46:25;;;;;;;11.55;7.70;;;11.70;99.90;;;;;;6101119;23;20050;-94
2021/05/14 04:48:52;;;;;;;13.25;7.10;;;11.80;99.90;;;;;;6128702;23;20009;-95
2021/05/14 04:51:20;;;;;;;15.15;6.45;;;11.90;99.90;;;;;;6109329;23;20005;-94
2021/05/14 05:02:59;;;;;;;10.20;7.00;;;11.90;99.90;;;;;;5999498;23;20018;-84
2021/05/14 05:05:26;;;;;;;11.48;7.07;;;11.90;99.90;;;;;;6107957;23;20013;-94
2021/05/14 05:07:54;;;;;;;13.40;7.50;;;12.00;99.90;;;;;;6106181;23;20018;-94
2021/05/14 05:10:21;;;;;;;14.68;7.88;;;12.00;99.90;;;;;;6131151;23;20018;-96
2021/05/14 05:12:48;;;;;;;17.00;7.70;;;12.10;99.90;;;;;;6154565;23;20006;-96
2021/05/14 05:15:17;;;;;;;11.32;7.40;;;12.10;99.90;;;;;;6128978;23;20009;-96
2021/05/14 05:17:44;;;;;;;13.88;8.15;;;12.20;99.90;;;;;;6129207;23;20005;-96
2021/05/14 05:20:13;;;;;;;11.70;6.90;;;12.20;99.90;;;;;;6105951;23;20024;-96
2021/05/14 05:22:40;;;;;;;10.70;7.50;;;12.20;99.90;;;;;;6125836;23;20006;-96
2021/05/14 05:25:09;;;;;;;10.63;7.32;;;12.10;99.90;;;;;;6122165;23;20005;-96
2021/05/14 05:27:36;;;;;;;14.30;8.07;;;12.20;99.90;;;;;;6127200;23;20021;-96
2021/05/14 05:30:04;;;;;;;14.82;7.60;;;12.30;99.90;;;;;;6103262;23;20013;-96
2021/05/14 05:32:32;;;;;;;11.95;7.35;;;12.30;99.90;;;;;;6126672;23;20010;-96
2021/05/14 05:34:59;;;;;;;11.45;7.32;;;12.30;99.90;;;;;;6125131;23;20020;-96
2021/05/14 05:37:30;;;;;;;13.05;6.95;;;12.30;99.90;;;;;;6122549;23;20010;-93
2021/05/14 05:39:57;;;;;;;10.63;6.82;;;12.50;99.90;;;;;;6098766;23;20013;-94
2021/05/14 05:42:26;;;;;;;11.32;6.90;;;12.40;99.90;;;;;;6095885;23;20306;-96
2021/05/14 05:44:56;;;;;;;13.95;7.03;;;12.40;99.90;;;;;;6119705;23;20006;-96
2021/05/14 05:47:23;;;;;;;12.80;7.63;;;12.50;99.90;;;;;;6118100;23;20013;-96
2021/05/14 05:50:05;;;;;;;12.90;7.40;;;12.50;99.90;;;;;;6141911;23;20316;-96
2021/05/14 05:52:33;;;;;;;13.43;7.38;;;12.50;99.90;;;;;;6115622;23;20046;-96
2021/05/14 05:55:01;;;;;;;12.38;6.90;;;12.70;99.90;;;;;;6142361;23;20024;-95
2021/05/14 05:57:30;;;;;;;13.18;6.38;;;12.80;99.90;;;;;;6094673;23;20018;-96
2021/05/14 05:59:57;;;;;;;10.30;6.30;;;12.90;99.90;;;;;;6119212;23;20041;-96
2021/05/14 06:02:26;;;;;;;13.85;6.63;;;13.00;99.90;;;;;;6145887;23;20010;-96
2021/05/14 06:04:53;;;;;;;13.13;6.63;;;13.00;99.90;;;;;;6124785;23;20018;-96
2021/05/14 06:07:21;;;;;;;12.65;7.22;;;13.00;99.90;;;;;;6147112;23;20013;-94
2021/05/14 06:09:49;;;;;;;14.20;6.88;;;12.90;99.90;;;;;;6122562;23;20010;-95
2021/05/14 06:12:16;;;;;;;10.25;6.55;;;12.80;99.90;;;;;;6119815;23;20010;-95
2021/05/14 06:14:46;;;;;;;10.93;6.13;;;12.80;99.90;;;;;;6120156;23;20006;-96
2021/05/14 06:17:13;;;;;;;11.77;6.53;;;12.70;99.90;;;;;;6100837;23;20010;-96
2021/05/14 06:19:46;;;;;;;16.10;6.28;;;12.70;99.90;;;;;;6099024;23;20009;-96
2021/05/14 06:22:14;;;;;;;13.23;6.65;;;12.60;99.90;;;;;;6091843;23;20013;-95
2021/05/14 06:24:42;;;;;;;12.15;6.85;;;12.50;99.90;;;;;;6114076;23;20045;-96
2021/05/14 06:27:10;;;;;;;16.27;7.15;;;12.50;99.90;;;;;;6114875;23;20231;-95
2021/05/14 06:29:38;;;;;;;10.23;6.00;;;12.60;99.90;;;;;;6092770;23;20018;-95
2021/05/14 06:32:06;;;;;;;14.60;7.00;;;12.70;99.90;;;;;;6114233;23;20045;-96
2021/05/14 06:34:35;;;;;;;13.57;6.80;;;12.70;99.90;;;;;;6092015;23;20006;-95
2021/05/14 06:37:05;;;;;;;10.95;6.10;;;12.90;99.90;;;;;;6095978;23;20010;-95
2021/05/14 06:39:35;;;;;;;12.40;6.40;;;13.00;99.90;;;;;;6126915;23;20006;-96
2021/05/14 06:42:06;;;;;;;8.80;5.82;;;13.00;99.90;;;;;;6092105;23;20019;-96
2021/05/14 06:48:21;;;;;;;13.80;6.07;;;13.10;99.90;;;;;;6133294;23;20021;-94
2021/05/14 06:50:55;;;;;;;14.52;6.95;;;13.20;99.90;;;;;;6121719;23;20017;-93
2021/05/14 06:53:24;;;;;;;15.20;6.93;;;13.20;99.90;;;;;;6070563;23;20039;-92
2021/05/14 06:55:53;;;;;;;14.63;7.88;;;13.30;99.90;;;;;;6040074;23;20010;-95
2021/05/14 06:58:21;;;;;;;15.68;6.47;;;13.40;99.90;;;;;;6058346;23;20007;-93
2021/05/14 07:00:51;;;;;;;10.75;5.90;;;13.30;99.90;;;;;;6063067;23;20018;-96
2021/05/14 07:03:20;;;;;;;11.52;6.20;;;13.30;99.90;;;;;;6068991;23;20011;-96
2021/05/14 07:05:50;;;;;;;;;;;13.30;99.90;;;;;;6067621;23;20065;-96
2021/05/14 07:08:20;;;;;;;10.73;5.95;;;13.30;99.90;;;;;;6072500;23;20303;-91
2021/05/14 07:19:41;;;;;;;12.32;5.47;;;13.00;99.90;;;;;;6135562;23;20021;-96
2021/05/14 07:25:01;;;;;;;9.20;5.50;;;13.30;99.90;;;;;;6019158;23;20022;-94
2021/05/14 07:27:33;;;;;;;10.93;4.95;;;13.40;99.90;;;;;;6080796;23;20009;-94
2021/05/14 07:30:00;;;;;;;9.82;4.97;;;13.50;99.90;;;;;;6119326;23;20009;-96
2021/05/14 07:32:33;;;;;;;10.48;4.53;;;13.60;99.90;;;;;;6126988;23;20025;-96
2021/05/14 07:35:01;;;;;;;9.77;4.20;;;13.80;99.90;;;;;;6097630;23;20017;-96
2021/05/14 07:37:29;;;;;;;6.93;4.45;;;14.00;99.90;;;;;;6095246;23;20014;-95
2021/05/14 07:54:14;;;;;;;10.60;5.85;;;13.70;99.90;;;;;;6138929;23;20343;-96
2021/05/14 07:59:38;;;;;;;13.15;6.97;;;14.30;99.90;;;;;;6140560;23;20034;-96
2021/05/14 08:05:11;;;;;;;13.43;7.50;;;14.70;99.90;;;;;;6084962;23;20025;-92
2021/05/14 08:07:40;;;;;;;13.35;7.18;;;14.70;99.90;;;;;;6029715;23;20014;-94
2021/05/14 08:10:10;;;;;;;14.82;7.10;;;14.80;99.90;;;;;;6095078;23;20006;-92
2021/05/14 08:12:38;;;;;;;13.27;7.90;;;14.80;99.90;;;;;;6070362;23;20014;-95
2021/05/14 08:15:10;;;;;;;12.02;7.30;;;15.10;99.90;;;;;;6100012;23;20018;-96
2021/05/14 08:17:38;;;;;;;11.98;6.88;;;15.60;99.90;;;;;;6090876;23;20067;-94
2021/05/14 08:20:10;;;;;;;12.63;5.95;;;15.40;99.90;;;;;;6073953;23;20010;-96
2021/05/14 08:22:44;;;;;;;16.88;7.47;;;15.70;99.90;;;;;;6074466;23;20014;-95
2021/05/14 08:25:14;;;;;;;9.48;5.50;;;16.10;99.90;;;;;;6070905;23;20011;-94
2021/05/14 08:27:42;;;;;;;8.73;5.35;;;16.40;99.90;;;;;;6087577;23;20021;-95
2021/05/14 08:30:12;;;;;;;10.67;4.90;;;16.80;99.90;;;;;;6085383;23;20014;-94
2021/05/14 08:32:41;;;;;;;11.13;5.55;;;17.20;99.90;;;;;;6091998;23;20021;-93
2021/05/14 08:35:11;;;;;;;9.25;5.18;;;17.50;99.90;;;;;;6063823;23;20014;-92
2021/05/14 08:37:40;;;;;;;;;;;17.70;99.90;;;;;;6063845;23;20010;-91
2021/05/14 08:40:12;;;;;;;11.90;5.20;;;17.80;99.90;;;;;;6061602;23;19957;-92
2021/05/14 08:42:41;;;;;;;6.72;4.10;;;18.20;99.90;;;;;;6086832;23;20099;-91
2021/05/14 08:45:10;;;;;;;9.90;4.15;;;18.20;99.60;;;;;;6062978;23;20075;-92
2021/05/14 08:47:41;;;;;;;8.38;4.43;;;18.00;99.90;;;;;;6063162;23;20017;-92
2021/05/14 08:50:11;;;;;;;7.57;4.53;;;18.00;99.90;;;;;;6038704;23;20345;-96
2021/05/14 08:52:39;;;;;;;8.52;4.55;;;17.40;99.90;;;;;;6068837;23;20006;-91
2021/05/14 08:55:08;;;;;;;;;;;16.60;99.90;;;;;;6040311;23;20010;-94
2021/05/14 08:57:41;;;;;;;7.72;4.15;;;16.80;99.90;;;;;;6110718;23;19949;-94
2021/05/14 09:00:10;;;;;;;8.52;4.15;;;17.30;99.90;;;;;;6064995;23;20319;-92
2021/05/14 09:02:39;;;;;;;6.53;4.07;;;17.80;99.90;;;;;;6087517;23;20017;-91
2021/05/14 09:05:29;;;;;;;;;;;17.90;99.90;;;;;;6087633;23;20022;-92
2021/05/14 09:07:58;;;;;;;9.57;4.00;;;18.00;98.90;;;;;;6088434;23;19921;-94
2021/05/14 09:10:27;;;;;;;6.53;4.10;;;17.30;99.90;;;;;;6087336;23;20074;-94
2021/05/14 09:12:56;;;;;;;9.82;4.22;;;17.30;99.90;;;;;;6063288;23;20050;-94
2021/05/14 09:15:30;;;;;;;11.30;6.63;;;17.30;99.90;;;;;;6065247;23;20050;-96
2021/05/14 09:23:55;;;;;;;13.65;7.40;;;15.70;99.90;;;;;;6010926;23;20030;-95
2021/05/14 09:26:29;;;;;;;11.98;7.32;;;15.50;99.90;;;;;;6101259;23;20033;-96
2021/05/14 09:28:59;;;;;;;10.05;6.75;;;15.50;99.90;;;;;;6124226;23;20020;-96
2021/05/14 09:31:48;;;;;;;11.27;6.57;;;15.50;99.90;;;;;;6126431;23;20005;-96
2021/05/14 09:34:35;;;;;;;13.38;7.28;;;15.80;99.90;;;;;;6102910;23;20020;-94
2021/05/14 09:37:14;;;;;;;15.82;7.47;;;15.80;99.90;;;;;;6028678;23;20018;-94
2021/05/14 10:09:10;;;;;;;13.35;8.63;;;15.50;99.90;;;;;;6105260;23;20255;-96
2021/05/14 10:11:37;;;;;;;12.13;7.53;;;16.00;99.90;;;;;;6106026;23;20012;-96
2021/05/14 10:14:07;;;;;;;10.85;7.07;;;16.40;99.90;;;;;;6128655;23;20013;-96
2021/05/14 10:16:35;;;;;;;14.68;7.75;;;16.80;99.90;;;;;;6103991;23;20017;-96
2021/05/14 10:19:03;;;;;;;9.63;7.25;;;17.10;99.90;;;;;;6073335;23;20014;-89
2021/05/14 10:21:32;;;;;;;9.50;7.38;;;16.50;99.90;;;;;;6077583;23;20025;-94
2021/05/14 10:27:15;;;;;;;14.30;7.07;;;15.80;99.90;;;;;;6007083;23;20401;-81
2021/05/14 10:29:46;;;;;;;11.30;7.13;;;15.50;99.90;;;;;;6108139;23;20013;-91
2021/05/14 10:35:22;;;;;;;15.63;7.72;;;15.10;99.90;;;;;;6029718;23;20014;-80
2021/05/14 10:44:04;;;;;;;12.80;7.70;;;14.70;99.90;;;;;;6031134;23;20054;-93
2021/05/14 10:46:33;;;;;;;12.98;7.78;;;14.70;99.90;;;;;;6131699;23;20017;-93
2021/05/14 10:49:03;;;;;;;11.43;7.75;;;14.70;99.90;;;;;;6131677;23;20013;-96
2021/05/14 10:52:00;;;;;;;11.07;7.63;;;14.70;99.90;;;;;;6131301;23;20021;-96
2021/05/14 10:54:51;;;;;;;10.30;7.13;;;14.70;99.90;;;;;;6130251;23;20006;-95
2021/05/14 10:57:51;;;;;;;17.08;7.68;;;14.70;99.90;;;;;;6105861;23;20013;-94
2021/05/14 11:00:39;;;;;;;10.25;6.70;;;14.90;99.90;;;;;;6065882;23;20029;-96
2021/05/14 11:03:17;;;;;;;14.75;6.70;;;14.90;99.90;;;;;;6017428;23;20007;-96
2021/05/14 11:05:47;;;;;;;11.63;7.00;;;14.80;99.90;;;;;;6089104;23;20009;-96
2021/05/14 11:08:41;;;;;;;12.52;6.53;;;14.80;99.90;;;;;;6096437;23;20020;-94
2021/05/14 11:11:11;;;;;;;11.25;6.75;;;14.70;99.90;;;;;;6103902;23;20006;-93
2021/05/14 11:13:48;;;;;;;9.15;7.35;;;14.50;99.90;;;;;;6123780;23;20013;-96
2021/05/14 11:16:34;;;;;;;14.63;7.75;;;14.40;99.90;;;;;;6121754;23;20021;-96
2021/05/14 11:19:11;;;;;;;16.30;7.60;;;14.30;99.90;;;;;;6121252;23;20010;-96
2021/05/14 11:22:09;;;;;;;13.82;8.18;;;14.20;99.90;;;;;;6102279;23;20010;-96
2021/05/14 11:30:28;;;;;;;10.70;6.47;;;13.70;99.90;;;;;;6022253;23;20006;-95
2021/05/14 11:33:01;;;;;;;14.93;7.75;;;13.20;99.90;;;;;;6101079;23;20014;-94
2021/05/14 11:41:07;;;;;;;12.77;8.20;;;12.90;99.90;;;;;;6105634;23;20038;-94
2021/05/14 11:43:34;;;;;;;10.00;7.10;;;12.80;99.90;;;;;;6125153;23;20016;-96
2021/05/14 11:46:01;;;;;;;13.02;7.78;;;12.80;99.90;;;;;;6094357;23;20014;-96
2021/05/14 11:48:40;;;;;;;10.13;7.53;;;12.60;99.90;;;;;;6142682;23;20013;-96
2021/05/14 11:51:07;;;;;;;12.40;8.07;;;12.30;99.90;;;;;;6122550;23;20020;-96
2021/05/14 11:53:35;;;;;;;13.73;7.75;;;12.20;99.90;;;;;;6119605;23;20034;-96
2021/05/14 11:56:04;;;;;;;12.05;7.65;;;12.20;99.90;;;;;;6120673;23;20010;-95
2021/05/14 11:58:32;;;;;;;11.05;6.53;;;12.30;99.90;;;;;;6149566;23;20014;-96
2021/05/14 12:01:03;;;;;;;11.48;7.03;;;12.40;99.90;;;;;;6119394;23;20017;-96
2021/05/14 12:03:31;;;;;;;11.65;5.95;;;12.40;99.90;;;;;;6073955;23;21414;-96
2021/05/14 12:35:39;;;;;;;9.90;7.75;;;12.60;99.90;;;;;;6026050;23;20014;-93
2021/05/14 12:38:08;;;;;;;13.43;9.07;;;12.60;99.90;;;;;;6127636;23;20017;-96
2021/05/14 12:40:38;;;;;;;15.63;8.70;;;12.70;99.90;;;;;;6124542;23;20033;-95
2021/05/14 12:43:11;;;;;;;13.93;8.15;;;12.80;99.90;;;;;;6100978;23;20010;-94
2021/05/14 12:45:41;;;;;;;17.83;9.10;;;12.90;99.90;;;;;;6122801;23;20016;-94
2021/05/14 12:48:10;;;;;;;13.60;8.13;;;13.00;99.90;;;;;;6121019;23;20022;-93
2021/05/14 12:56:32;;;;;;;16.38;9.07;;;13.20;99.90;;;;;;6054709;23;20010;-91
2021/05/14 13:01:51;;;;;;;12.30;8.77;;;13.30;99.90;;;;;;6121336;23;20053;-93
2021/05/14 13:04:28;;;;;;;13.10;9.20;;;13.30;99.90;;;;;;6120306;23;20014;-96
2021/05/14 13:07:05;;;;;;;16.48;9.32;;;13.40;99.90;;;;;;6094421;23;20020;-96
2021/05/14 13:09:33;;;;;;;11.13;8.35;;;13.40;99.90;;;;;;6093729;23;20013;-95
2021/05/14 13:12:04;;;;;;;14.45;8.45;;;13.30;99.90;;;;;;6116316;23;20021;-96
2021/05/14 13:14:31;;;;;;;11.05;7.88;;;13.30;99.90;;;;;;6092436;23;20438;-93
2021/05/14 13:16:58;;;;;;;13.80;8.18;;;13.30;99.90;;;;;;6117742;23;20014;-94
2021/05/14 13:19:54;;;;;;;10.88;7.85;;;13.40;99.90;;;;;;6115784;23;20042;-95
2021/05/14 13:22:21;;;;;;;17.20;7.80;;;13.60;99.90;;;;;;6117188;23;20014;-93
2021/05/14 13:30:42;;;;;;;15.20;8.05;;;13.70;99.90;;;;;;6061399;23;20017;-93
2021/05/14 13:33:15;;;;;;;10.25;7.45;;;14.00;99.90;;;;;;6103963;23;20012;-90
2021/05/14 13:35:43;;;;;;;11.82;8.57;;;14.50;99.90;;;;;;6147319;23;20022;-95
2021/05/14 13:38:12;;;;;;;10.65;6.45;;;16.00;99.90;;;;;;6146344;23;20013;-92
2021/05/14 13:40:45;;;;;;;9.05;6.30;;;18.30;99.90;;;;;;6096283;23;20020;-91
2021/05/14 13:43:13;;;;;;;10.98;5.70;;;19.70;99.90;;;;;;6142681;23;20045;-92
2021/05/14 13:45:43;;;;;;;10.73;5.68;;;20.10;99.90;;;;;;6115720;23;20013;-91
2021/05/14 13:48:14;;;;;;;9.75;5.88;;;21.20;99.90;;;;;;6069684;23;20014;-89
2021/05/14 13:50:42;;;;;;;8.15;5.25;;;21.40;96.70;;;;;;6073076;23;20014;-88
2021/05/14 13:53:10;;;;;;;9.67;4.50;;;21.40;95.80;;;;;;6150303;23;20021;-89
2021/05/14 13:55:39;;;;;;;12.68;6.00;;;21.70;96.00;;;;;;6099873;23;20006;-90
2021/05/14 13:58:06;;;;;;;7.97;5.75;;;22.80;90.00;;;;;;6093831;23;20013;-91
2021/05/14 14:00:34;;;;;;;10.38;5.93;;;23.60;75.80;;;;;;6117699;23;20009;-93
2021/05/14 14:03:06;;;;;;;9.07;6.50;;;22.30;80.70;;;;;;6094690;23;20016;-94
2021/05/14 14:05:34;;;;;;;7.80;5.72;;;21.70;90.00;;;;;;6105148;23;20325;-94
2021/05/14 14:08:04;;;;;;;12.20;6.38;;;20.50;93.10;;;;;;6153298;23;20077;-93
2021/05/14 14:10:32;;;;;;;9.15;7.05;;;19.50;98.80;;;;;;6102154;23;20013;-91
2021/05/14 14:13:03;;;;;;;10.90;6.50;;;18.80;99.90;;;;;;6127130;23;20013;-96
2021/05/14 14:15:31;;;;;;;11.63;7.72;;;17.70;99.90;;;;;;6090962;23;20032;-95
2021/05/14 14:18:12;;;;;;;12.40;6.95;;;17.10;99.90;;;;;;6140645;23;20345;-94
2021/05/14 14:20:42;;;;;;;12.75;7.20;;;16.80;99.90;;;;;;6067999;23;20024;-92
2021/05/14 14:23:11;;;;;;;9.77;7.38;;;16.60;99.90;;;;;;6115565;23;20017;-93
2021/05/14 14:25:38;;;;;;;;;;;16.50;99.90;;;;;;6092885;23;20009;-92
2021/05/14 14:28:06;;;;;;;10.43;6.22;;;16.40;99.90;;;;;;6115722;23;19921;-93
2021/05/14 14:30:37;;;;;;;14.48;8.50;;;16.30;99.90;;;;;;6091536;23;20021;-91
2021/05/14 14:33:05;;;;;;;9.93;6.15;;;16.50;99.90;;;;;;6147076;23;20028;-91
2021/05/14 14:35:33;;;;;;;10.97;7.13;;;16.90;99.90;;;;;;6129032;23;20014;-90
2021/05/14 14:38:02;;;;;;;16.15;9.02;;;17.30;99.90;;;;;;6128455;23;20005;-90
2021/05/14 14:40:30;;;;;;;12.55;6.75;;;17.60;99.90;;;;;;6153521;23;20006;-89
2021/05/14 14:43:24;;;;;;;7.30;5.38;;;17.80;99.90;;;;;;6154643;23;20013;-90
2021/05/14 14:45:52;;;;;;;13.45;6.20;;;17.90;99.90;;;;;;6105907;23;20006;-90
2021/05/14 14:48:19;;;;;;;11.38;6.30;;;17.80;99.90;;;;;;6105075;23;20010;-89
2021/05/14 14:50:49;;;;;;;10.68;6.32;;;17.60;99.90;;;;;;6128029;23;20010;-88
2021/05/14 14:53:17;;;;;;;9.75;6.53;;;17.50;99.90;;;;;;6114969;23;20042;-89
2021/05/14 14:55:46;;;;;;;9.45;5.97;;;17.30;99.90;;;;;;6116094;23;20018;-93
2021/05/14 14:58:13;;;;;;;10.35;7.10;;;17.00;99.90;;;;;;6116583;23;20005;-93
2021/05/14 15:00:44;;;;;;;11.80;6.80;;;16.80;99.90;;;;;;6117371;23;20247;-92
2021/05/14 15:03:33;;;;;;;10.75;6.82;;;16.50;99.90;;;;;;6092748;23;20243;-92
2021/05/14 15:06:02;;;;;;;12.30;6.78;;;16.30;99.90;;;;;;6120767;23;20010;-94
2021/05/14 15:08:34;;;;;;;9.02;6.00;;;16.10;99.90;;;;;;6144145;23;20017;-94
2021/05/14 15:11:06;;;;;;;6.60;3.72;;;15.90;99.90;;;;;;6148414;23;20067;-95
2021/05/14 15:13:34;;;;;;;10.48;4.22;;;15.70;99.90;;;;;;6125188;23;20247;-94
2021/05/14 15:16:02;;;;;;;7.20;4.10;;;15.50;99.90;;;;;;6125456;23;20014;-94
2021/05/14 15:18:29;;;;;;;6.65;4.40;;;15.30;99.90;;;;;;6124430;23;20010;-94
2021/05/14 15:20:57;;;;;;;11.15;4.70;;;15.10;99.90;;;;;;6125258;23;20014;-94
2021/05/14 15:23:27;;;;;;;8.45;5.35;;;14.90;99.90;;;;;;6119408;23;20018;-92
2021/05/14 15:37:40;;;;;;;13.80;7.80;;;12.90;99.90;;;;;;5975383;23;19917;-82
2021/05/14 15:40:10;;;;;;;13.27;8.10;;;12.90;99.90;;;;;;6081230;23;20038;-93
2021/05/14 15:42:39;;;;;;;13.50;8.18;;;13.10;99.90;;;;;;6068470;23;20025;-91
2021/05/14 15:45:07;;;;;;;15.27;7.97;;;13.20;99.90;;;;;;6063826;23;20007;-95
2021/05/14 15:47:35;;;;;;;14.63;9.13;;;13.10;99.90;;;;;;6085683;23;20010;-96
2021/05/14 15:50:03;;;;;;;12.82;8.35;;;13.20;99.90;;;;;;6084654;23;20025;-94
2021/05/14 15:52:31;;;;;;;11.25;7.78;;;13.40;99.90;;;;;;6110153;23;20018;-95
2021/05/14 15:55:00;;;;;;;12.15;7.15;;;13.70;99.90;;;;;;6062128;23;20047;-94
2021/05/14 15:57:28;;;;;;;11.63;7.63;;;14.00;99.90;;;;;;6093346;23;20022;-93
2021/05/14 15:59:56;;;;;;;11.77;7.28;;;14.20;99.90;;;;;;6095535;23;20010;-90
2021/05/14 16:02:23;;;;;;;12.80;7.35;;;14.40;99.90;;;;;;6094755;23;20029;-93
2021/05/14 16:04:50;;;;;;;10.88;7.93;;;14.50;99.90;;;;;;6110167;23;20014;-93
2021/05/14 16:07:20;;;;;;;12.70;8.52;;;14.60;99.90;;;;;;6090505;23;20014;-90
2021/05/14 16:09:51;;;;;;;13.90;7.75;;;14.80;99.90;;;;;;6088523;23;20010;-90
2021/05/14 16:12:18;;;;;;;12.15;7.53;;;15.00;99.90;;;;;;6061692;23;20019;-90
2021/05/14 16:14:46;;;;;;;10.27;7.40;;;15.20;99.90;;;;;;6084976;23;20050;-90
2021/05/14 16:17:17;;;;;;;14.40;7.82;;;15.50;99.90;;;;;;6085877;23;20021;-89
2021/05/14 16:19:49;;;;;;;12.38;7.43;;;16.00;99.90;;;;;;6062019;23;20322;-90
2021/05/14 16:22:20;;;;;;;11.10;7.13;;;16.20;99.90;;;;;;6087257;23;20011;-90
2021/05/14 16:24:48;;;;;;;12.98;7.50;;;16.40;99.90;;;;;;6086766;23;20022;-89
2021/05/14 16:27:19;;;;;;;10.77;6.72;;;16.40;99.90;;;;;;6063266;23;20014;-90
2021/05/14 16:29:50;;;;;;;9.77;6.32;;;16.60;99.90;;;;;;6085571;23;20022;-89
2021/05/14 16:32:18;;;;;;;10.02;6.72;;;17.20;99.90;;;;;;6112235;23;20021;-89
2021/05/14 16:34:45;;;;;;;9.68;6.57;;;17.30;99.90;;;;;;6085395;23;20050;-88
2021/05/14 16:37:12;;;;;;;9.80;6.30;;;17.70;99.90;;;;;;6085726;23;20017;-87
2021/05/14 16:39:40;;;;;;;13.05;7.40;;;19.30;99.90;;;;;;6086758;23;20018;-87
2021/05/14 16:42:11;;;;;;;11.10;6.20;;;20.00;99.10;;;;;;6088024;23;20302;-87
2021/05/14 16:44:43;;;;;;;11.30;6.47;;;19.50;99.90;;;;;;6087373;23;20014;-88
2021/05/14 16:47:11;;;;;;;10.75;6.65;;;19.70;99.70;;;;;;6089225;23;20018;-87
2021/05/14 16:49:41;;;;;;;10.77;7.10;;;19.40;99.70;;;;;;6068566;23;20010;-88
2021/05/14 16:52:09;;;;;;;14.05;6.85;;;18.80;99.90;;;;;;6065207;23;20014;-87
2021/05/14 16:54:36;;;;;;;11.77;7.22;;;18.30;99.90;;;;;;6088025;23;20054;-88
2021/05/14 16:57:04;;;;;;;9.07;5.93;;;17.90;99.90;;;;;;6113535;23;20020;-88
2021/05/14 16:59:32;;;;;;;14.18;6.25;;;18.60;99.90;;;;;;6071416;23;20318;-88
2021/05/14 17:01:59;;;;;;;8.60;4.90;;;19.90;99.80;;;;;;6070537;23;20235;-87
2021/05/14 17:04:28;;;;;;;8.68;4.88;;;20.90;96.80;;;;;;6118935;23;20022;-88
2021/05/14 17:07:01;;;;;;;11.13;6.43;;;21.80;92.90;;;;;;6100147;23;20014;-88
2021/05/14 17:09:29;;;;;;;9.13;5.72;;;22.30;80.40;;;;;;6102670;23;20013;-90
2021/05/14 17:11:58;;;;;;;9.90;6.00;;;21.70;81.40;;;;;;6125706;23;20002;-90
2021/05/14 17:14:27;;;;;;;11.88;5.53;;;21.20;90.20;;;;;;6091516;23;20246;-92
2021/05/14 17:16:55;;;;;;;8.18;5.30;;;20.50;92.40;;;;;;6065037;23;20010;-93
2021/05/14 17:19:23;;;;;;;10.23;6.70;;;19.90;94.20;;;;;;6064155;23;20338;-94
2021/05/14 17:21:52;;;;;;;12.43;7.27;;;19.80;95.50;;;;;;6089157;23;20010;-94
2021/05/14 17:24:21;;;;;;;12.60;6.85;;;19.50;96.40;;;;;;6065565;23;20021;-94
2021/05/14 17:26:54;;;;;;;12.05;7.93;;;18.60;99.90;;;;;;6066532;23;20010;-88
2021/05/14 17:29:22;;;;;;;13.38;8.40;;;17.30;99.90;;;;;;6065345;23;20081;-90
2021/05/14 17:31:50;;;;;;;13.60;8.77;;;16.70;99.90;;;;;;6084917;23;20042;-93
2021/05/14 17:34:18;;;;;;;15.18;7.95;;;16.30;99.90;;;;;;6062378;23;20046;-91
2021/05/14 17:36:49;;;;;;;;;;;16.00;99.90;;;;;;6088969;23;20070;-90
2021/05/14 17:39:19;;;;;;;17.25;8.75;;;15.70;99.90;;;;;;6086093;23;19921;-93
2021/05/14 17:41:49;;;;;;;13.18;8.35;;;15.60;99.90;;;;;;6061431;23;20311;-89
2021/05/14 17:44:22;;;;;;;15.70;8.25;;;15.50;99.90;;;;;;6088308;23;20014;-91
2021/05/14 17:46:50;;;;;;;13.27;8.55;;;15.30;99.90;;;;;;6063292;23;20013;-89
2021/05/14 17:49:19;;;;;;;15.25;8.48;;;15.20;99.90;;;;;;6084711;23;20324;-92
2021/05/14 17:51:46;;;;;;;13.50;8.25;;;15.10;99.90;;;;;;6061344;23;20017;-94
2021/05/14 17:54:16;;;;;;;15.43;8.57;;;15.10;99.90;;;;;;6038374;23;20034;-94
2021/05/14 17:56:46;;;;;;;18.33;8.93;;;15.00;99.90;;;;;;6060491;23;20047;-93
2021/05/14 17:59:14;;;;;;;12.30;8.15;;;15.00;99.90;;;;;;6061944;23;20280;-94
2021/05/14 18:01:47;;;;;;;13.85;7.60;;;15.00;99.90;;;;;;6084906;23;20071;-92
2021/05/14 18:04:14;;;;;;;17.67;9.18;;;14.90;99.90;;;;;;6063077;23;20010;-90
2021/05/14 18:06:46;;;;;;;16.90;9.10;;;14.80;99.90;;;;;;6064856;23;20017;-90
2021/05/14 18:09:15;;;;;;;15.27;9.98;;;14.70;99.90;;;;;;6088948;23;20014;-92
2021/05/14 18:11:46;;;;;;;16.10;9.57;;;14.60;99.90;;;;;;6087674;23;20014;-92
2021/05/14 18:14:15;;;;;;;13.65;9.25;;;14.60;99.90;;;;;;6064801;23;20038;-89
2021/05/14 18:16:46;;;;;;;14.70;9.98;;;14.50;99.90;;;;;;6094460;23;20021;-93
2021/05/14 18:22:00;;;;;;;14.23;10.35;;;14.30;99.90;;;;;;6062050;23;20021;-95
2021/05/14 18:24:28;;;;;;;14.88;9.88;;;14.20;99.90;;;;;;6062465;23;20014;-92
2021/05/14 18:26:57;;;;;;;15.73;10.00;;;14.10;99.90;;;;;;6085889;23;20021;-93
2021/05/14 18:29:25;;;;;;;;;;;13.90;99.90;;;;;;6088622;23;20010;-95
2021/05/14 18:31:52;;;;;;;15.45;9.68;;;13.80;99.90;;;;;;6089746;23;19929;-94
2021/05/14 18:34:27;;;;;;;14.95;9.82;;;13.70;99.90;;;;;;6063735;23;20034;-92
2021/05/14 18:36:55;;;;;;;16.20;10.63;;;13.70;99.90;;;;;;6064463;23;20021;-91
2021/05/14 18:39:24;;;;;;;;;;;13.70;99.90;;;;;;6070483;23;20037;-92
2021/05/14 18:41:53;;;;;;;15.77;9.57;;;13.50;99.90;;;;;;6094228;23;19922;-91
2021/05/14 18:44:25;;;;;;;14.02;10.00;;;13.40;99.90;;;;;;6093123;23;20014;-92
2021/05/14 18:46:59;;;;;;;14.95;10.18;;;13.50;99.90;;;;;;6070176;23;20013;-91
2021/05/14 18:49:27;;;;;;;15.88;10.70;;;13.30;99.90;;;;;;6066270;23;20269;-91
2021/05/14 18:51:57;;;;;;;21.58;12.40;;;13.20;99.90;;;;;;6095595;23;20042;-92
2021/05/14 18:54:25;;;;;;;17.20;11.33;;;13.20;99.90;;;;;;6049344;23;20014;-92
2021/05/14 18:56:58;;;;;;;19.80;12.85;;;13.20;99.90;;;;;;6118700;23;20046;-92
2021/05/14 18:59:32;;;;;;;20.08;12.43;;;13.10;99.90;;;;;;6091079;23;20324;-92
2021/05/14 19:02:01;;;;;;;17.45;11.68;;;13.20;99.90;;;;;;6110709;23;20315;-93